Time;durP1;ratioP1;P1;durP2;ratioP2;P2;SDS_P1;SDS_P2;PMS_P1;PMS_P2;Temp;Humidity;BMP_temperature;BMP_pressure;BME280_temperature;BME280_humidity;BME280_pressure;Samples;Min_cycle;Max_cycle;Signal;HPM_P1;HPM_P2
2021/06/11 00:00:25;;;;;;;5.07;4.57;;;;;;;16.57;65.08;101127.78;5071354;28;20589;-77
2021/06/11 00:02:51;;;;;;;4.43;3.70;;;;;;;16.54;65.18;101137.94;5072442;28;20272;-77
2021/06/11 00:05:18;;;;;;;4.10;3.47;;;;;;;16.52;65.40;101143.41;5072432;28;20198;-77
2021/06/11 00:07:46;;;;;;;4.83;3.60;;;;;;;16.51;65.45;101135.47;5072349;28;20206;-76
2021/06/11 00:10:13;;;;;;;4.60;3.60;;;;;;;16.50;65.73;101145.38;5073021;28;20206;-77
2021/06/11 00:12:41;;;;;;;3.63;3.33;;;;;;;16.50;65.68;101145.38;5072580;28;20254;-77
2021/06/11 00:15:09;;;;;;;4.03;3.63;;;;;;;16.50;65.39;101142.69;5066974;28;20210;-77
2021/06/11 00:17:35;;;;;;;4.23;3.73;;;;;;;16.48;65.26;101141.94;5063107;28;20209;-77
2021/06/11 00:20:01;;;;;;;4.03;3.63;;;;;;;16.47;65.80;101147.47;5071861;28;20208;-77
2021/06/11 00:22:29;;;;;;;4.60;3.50;;;;;;;16.47;65.63;101150.16;5071329;28;20589;-77
2021/06/11 00:24:55;;;;;;;5.07;4.17;;;;;;;16.43;65.92;101146.88;5071305;28;20206;-77
2021/06/11 00:27:21;;;;;;;4.10;3.53;;;;;;;16.41;65.79;101151.50;5073651;28;20264;-76
2021/06/11 00:29:47;;;;;;;5.03;3.80;;;;;;;16.38;65.94;101135.63;5070636;28;20219;-76
2021/06/11 00:32:13;;;;;;;4.43;3.43;;;;;;;16.38;66.25;101146.38;5064591;28;20206;-77
2021/06/11 00:34:39;;;;;;;3.90;3.47;;;;;;;16.38;66.37;101146.38;5072852;28;20660;-77
2021/06/11 00:37:05;;;;;;;3.83;3.53;;;;;;;16.37;66.37;101139.28;5072080;28;20230;-77
2021/06/11 00:39:32;;;;;;;4.77;3.63;;;;;;;16.35;66.53;101135.84;5070729;28;20689;-78
2021/06/11 00:42:00;;;;;;;5.13;4.00;;;;;;;16.31;66.37;101147.81;5067197;28;20205;-77
2021/06/11 00:44:26;;;;;;;5.07;3.70;;;;;;;16.27;66.59;101138.31;5071508;28;20203;-77
2021/06/11 00:46:53;;;;;;;3.80;3.50;;;;;;;16.25;66.23;101141.13;5072029;28;20668;-77
2021/06/11 00:49:19;;;;;;;4.63;4.07;;;;;;;16.24;66.76;101139.41;5069415;28;20224;-77
2021/06/11 00:51:45;;;;;;;4.40;4.00;;;;;;;16.23;66.56;101139.53;5071067;28;20207;-77
2021/06/11 00:54:12;;;;;;;4.37;3.97;;;;;;;16.19;66.79;101141.59;5071651;28;20205;-77
2021/06/11 00:56:40;;;;;;;5.10;4.60;;;;;;;16.17;67.20;101142.69;5070958;28;20234;-77
2021/06/11 00:59:08;;;;;;;6.17;4.50;;;;;;;16.13;67.53;101142.06;5071623;28;20222;-77
2021/06/11 01:01:34;;;;;;;4.63;4.23;;;;;;;16.12;68.06;101134.97;5069587;28;20205;-76
2021/06/11 01:04:00;;;;;;;4.87;4.10;;;;;;;16.08;67.79;101130.84;5065925;28;20215;-77
2021/06/11 01:06:26;;;;;;;5.00;4.60;;;;;;;16.03;68.11;101126.81;5065806;28;20823;-77
2021/06/11 01:08:53;;;;;;;5.77;3.97;;;;;;;15.99;67.91;101126.19;5071269;28;20222;-77
2021/06/11 01:11:19;;;;;;;4.97;4.43;;;;;;;15.96;68.09;101129.97;5068199;28;20577;-77
2021/06/11 01:13:47;;;;;;;4.93;4.53;;;;;;;15.92;67.98;101123.13;5068498;28;20202;-77
2021/06/11 01:16:13;;;;;;;4.37;3.97;;;;;;;15.86;68.03;101134.34;5066934;28;20843;-77
2021/06/11 01:18:39;;;;;;;4.70;4.30;;;;;;;15.82;68.59;101127.50;5063334;28;20617;-77
2021/06/11 01:21:05;;;;;;;5.23;4.47;;;;;;;15.80;68.43;101129.44;5071527;28;20293;-77
2021/06/11 01:24:00;;;;;;;4.63;4.00;;;;;;;15.79;68.12;101126.88;5071445;28;20210;-77
2021/06/11 01:26:30;;;;;;;4.83;4.33;;;;;;;15.71;68.30;101129.31;5068032;28;20197;-77
2021/06/11 01:29:00;;;;;;;6.23;4.73;;;;;;;15.64;68.62;101131.59;5057185;28;20233;-77
2021/06/11 01:31:30;;;;;;;5.73;4.07;;;;;;;15.59;68.65;101125.72;5070885;28;20200;-77
2021/06/11 01:34:01;;;;;;;4.47;3.93;;;;;;;15.56;68.69;101128.66;5074446;28;20197;-76
2021/06/11 01:36:29;;;;;;;4.77;3.80;;;;;;;15.53;69.04;101126.19;5081301;28;20209;-77
2021/06/11 01:39:00;;;;;;;4.93;4.17;;;;;;;15.51;68.96;101125.44;5071474;28;20221;-77
2021/06/11 01:41:26;;;;;;;4.80;4.07;;;;;;;15.48;69.18;101128.34;5070343;28;20202;-76
2021/06/11 01:43:55;;;;;;;4.70;3.77;;;;;;;15.45;69.34;101123.22;5060068;28;20202;-76
2021/06/11 01:46:23;;;;;;;4.23;3.83;;;;;;;15.42;68.82;101120.75;5075111;28;20200;-75
2021/06/11 01:48:49;;;;;;;9.33;3.97;;;;;;;15.37;68.98;101115.75;5072004;28;20228;-75
2021/06/11 01:51:16;;;;;;;6.97;4.00;;;;;;;15.33;69.12;101127.69;5076935;28;20201;-77
2021/06/11 01:53:44;;;;;;;4.00;3.70;;;;;;;15.27;69.39;101120.94;5065102;28;20808;-77
2021/06/11 01:56:18;;;;;;;7.10;3.90;;;;;;;15.23;69.27;101130.19;5074359;28;20227;-76
2021/06/11 01:58:44;;;;;;;6.43;3.97;;;;;;;15.18;69.72;101132.41;5074613;28;20229;-76
2021/06/11 02:01:13;;;;;;;6.00;4.30;;;;;;;15.13;69.18;101139.91;5068018;28;20235;-77
2021/06/11 02:03:40;;;;;;;5.77;3.90;;;;;;;15.07;69.27;101135.00;5067762;28;20221;-76
2021/06/11 02:06:08;;;;;;;4.20;3.80;;;;;;;15.01;69.52;101129.25;5073496;28;20201;-77
2021/06/11 02:08:34;;;;;;;5.73;3.63;;;;;;;14.97;69.65;101125.06;5070290;28;20231;-76
2021/06/11 02:11:02;;;;;;;4.83;4.43;;;;;;;14.96;70.27;101137.63;5063314;28;20209;-77
2021/06/11 02:13:29;;;;;;;4.57;3.97;;;;;;;14.96;70.54;101131.41;5066235;28;20201;-77
2021/06/11 02:15:56;;;;;;;5.50;4.07;;;;;;;14.96;70.60;101124.22;5062530;28;20653;-77
2021/06/11 02:18:26;;;;;;;4.77;4.37;;;;;;;14.96;70.58;101118.00;5070446;28;20217;-77
2021/06/11 02:20:52;;;;;;;4.20;3.77;;;;;;;14.93;70.22;101122.63;5073832;28;20651;-77
2021/06/11 02:23:19;;;;;;;6.37;4.47;;;;;;;14.90;70.60;101121.97;5073651;28;20570;-77
2021/06/11 02:25:45;;;;;;;4.00;3.70;;;;;;;14.87;70.42;101127.56;5070739;28;20279;-76
2021/06/11 02:28:15;;;;;;;5.63;4.20;;;;;;;14.86;70.54;101124.06;5064896;28;20224;-76
2021/06/11 02:30:41;;;;;;;4.87;4.47;;;;;;;14.86;71.05;101120.53;5068153;28;20212;-76
2021/06/11 02:33:08;;;;;;;4.53;4.13;;;;;;;14.87;71.21;101117.69;5073718;28;20651;-76
2021/06/11 02:35:35;;;;;;;5.07;4.27;;;;;;;14.88;70.85;101118.56;5074288;28;20221;-77
2021/06/11 02:38:01;;;;;;;3.67;3.37;;;;;;;14.88;71.04;101123.91;5068875;28;20224;-77
2021/06/11 02:40:27;;;;;;;4.40;4.00;;;;;;;14.83;70.59;101120.75;5071855;28;20208;-77
2021/06/11 02:42:57;;;;;;;5.13;4.30;;;;;;;14.76;70.45;101117.66;5073900;28;20559;-77
2021/06/11 02:45:28;;;;;;;4.77;4.27;;;;;;;14.70;70.98;101114.53;5067181;28;20211;-77
2021/06/11 02:48:01;;;;;;;5.40;4.60;;;;;;;14.65;71.22;101122.94;5080338;28;20221;-76
2021/06/11 02:50:32;;;;;;;5.77;4.70;;;;;;;14.62;71.20;101117.81;5076623;28;20196;-77
2021/06/11 02:53:03;;;;;;;4.80;4.20;;;;;;;14.62;71.53;101116.94;5061945;28;20194;-77
2021/06/11 02:55:32;;;;;;;4.47;4.07;;;;;;;14.63;71.62;101124.03;5066371;28;20225;-77
2021/06/11 02:58:02;;;;;;;4.77;4.30;;;;;;;14.63;71.47;101121.34;5068521;28;20221;-77
2021/06/11 03:00:30;;;;;;;4.73;4.33;;;;;;;14.64;71.79;101125.75;5064982;28;20256;-76
2021/06/11 03:03:03;;;;;;;4.63;4.03;;;;;;;14.63;71.54;101127.56;5071634;28;20205;-76
2021/06/11 03:05:31;;;;;;;6.93;4.43;;;;;;;14.61;71.79;101124.13;5067962;28;20200;-76
2021/06/11 03:08:02;;;;;;;4.70;4.27;;;;;;;14.59;71.92;101123.38;5067398;28;20587;-76
2021/06/11 03:10:31;;;;;;;5.57;4.53;;;;;;;14.56;71.35;101123.59;5074800;28;20197;-76
2021/06/11 03:12:58;;;;;;;4.67;4.03;;;;;;;14.54;71.94;101126.38;5062168;28;20204;-76
2021/06/11 03:15:26;;;;;;;4.67;4.23;;;;;;;14.53;71.73;101129.19;5071217;28;20200;-76
2021/06/11 03:17:55;;;;;;;4.77;4.23;;;;;;;14.50;71.76;101122.25;5073346;28;20201;-76
2021/06/11 03:20:24;;;;;;;6.20;4.17;;;;;;;14.47;71.73;101125.13;5067178;28;20219;-76
2021/06/11 03:22:56;;;;;;;4.20;3.83;;;;;;;14.45;71.99;101120.84;5064685;28;20215;-76
2021/06/11 03:25:28;;;;;;;5.47;4.40;;;;;;;14.42;71.84;101119.25;5072700;28;20556;-76
2021/06/11 03:27:58;;;;;;;4.90;4.50;;;;;;;14.39;71.78;101113.22;5060763;28;20236;-77
2021/06/11 03:30:27;;;;;;;5.67;4.13;;;;;;;14.39;72.21;101111.38;5062043;28;20201;-77
2021/06/11 03:33:00;;;;;;;4.57;3.93;;;;;;;14.42;72.05;101121.91;5064154;28;20215;-77
2021/06/11 03:35:32;;;;;;;5.13;3.80;;;;;;;14.41;72.30;101119.34;5073059;28;20197;-76
2021/06/11 03:38:01;;;;;;;4.13;3.73;;;;;;;14.41;72.52;101117.53;5071675;28;20266;-77
2021/06/11 03:40:32;;;;;;;5.53;4.33;;;;;;;14.43;72.33;101123.63;5068181;28;20198;-76
2021/06/11 03:43:00;;;;;;;4.57;3.73;;;;;;;14.44;72.13;101120.00;5059293;28;20193;-77
2021/06/11 03:45:27;;;;;;;4.53;4.13;;;;;;;14.40;72.42;101107.78;5075568;28;20208;-77
2021/06/11 03:47:55;;;;;;;5.60;4.47;;;;;;;14.38;72.26;101120.38;5072344;28;20623;-76
2021/06/11 03:50:24;;;;;;;4.27;3.87;;;;;;;14.35;72.47;101117.94;5067901;28;20208;-77
2021/06/11 03:52:51;;;;;;;4.90;4.40;;;;;;;14.36;72.56;101118.78;5071913;28;20326;-76
2021/06/11 03:55:19;;;;;;;5.20;4.73;;;;;;;14.36;73.09;101111.59;5067205;28;20227;-76
2021/06/11 03:57:52;;;;;;;7.47;4.70;;;;;;;14.39;73.03;101115.88;5069517;28;20207;-77
2021/06/11 04:00:19;;;;;;;5.27;4.53;;;;;;;14.43;73.38;101112.91;5062523;28;20865;-76
2021/06/11 04:02:46;;;;;;;5.50;5.00;;;;;;;14.47;73.42;101118.91;5063790;28;20265;-76
2021/06/11 04:05:13;;;;;;;6.10;5.03;;;;;;;14.51;73.46;101118.56;5068390;28;20196;-76
2021/06/11 04:07:43;;;;;;;6.53;5.17;;;;;;;14.56;73.59;101111.06;5069102;28;20200;-76
2021/06/11 04:10:13;;;;;;;6.07;5.20;;;;;;;14.60;73.33;101117.06;5062618;28;20209;-76
2021/06/11 04:12:43;;;;;;;5.70;4.93;;;;;;;14.62;73.43;101116.94;5069751;28;20221;-76
2021/06/11 04:15:12;;;;;;;5.63;5.00;;;;;;;14.61;73.42;101115.22;5066927;28;20197;-76
2021/06/11 04:17:42;;;;;;;7.23;5.20;;;;;;;14.57;73.12;101117.28;5067251;28;20249;-76
2021/06/11 04:20:12;;;;;;;6.40;5.50;;;;;;;14.55;73.45;101111.16;5066254;28;20201;-76
2021/06/11 04:22:42;;;;;;;7.70;4.80;;;;;;;14.54;73.57;101112.13;5062828;28;20207;-76
2021/06/11 04:25:11;;;;;;;5.30;4.63;;;;;;;14.56;73.77;101116.41;5070203;28;20211;-76
2021/06/11 04:27:39;;;;;;;6.00;5.40;;;;;;;14.58;74.19;101110.94;5065341;28;20201;-76
2021/06/11 04:30:07;;;;;;;6.37;5.10;;;;;;;14.64;74.36;101120.38;5065610;28;20583;-76
2021/06/11 04:32:35;;;;;;;5.97;5.07;;;;;;;14.67;74.49;101110.28;5063958;28;20202;-76
2021/06/11 04:35:01;;;;;;;7.90;5.47;;;;;;;14.72;74.86;101105.44;5064185;28;20209;-75
2021/06/11 04:37:27;;;;;;;6.47;5.87;;;;;;;14.77;75.37;101108.63;5064172;28;20224;-77
2021/06/11 04:39:53;;;;;;;6.83;5.90;;;;;;;14.83;75.39;101112.69;5067224;28;20755;-76
2021/06/11 04:42:19;;;;;;;8.77;7.47;;;;;;;14.88;75.32;101105.16;5068458;28;20300;-76
2021/06/11 04:44:46;;;;;;;6.33;5.77;;;;;;;14.95;75.65;101106.41;5061497;28;20201;-75
2021/06/11 04:47:12;;;;;;;6.27;5.67;;;;;;;14.99;75.71;101102.53;5057387;28;20590;-77
2021/06/11 04:49:40;;;;;;;6.23;5.73;;;;;;;15.05;75.44;101103.91;5064562;28;20633;-77
2021/06/11 04:52:06;;;;;;;6.90;5.30;;;;;;;15.10;75.41;101107.94;5063014;28;20589;-75
2021/06/11 04:54:32;;;;;;;6.00;5.37;;;;;;;15.14;75.23;101109.44;5067099;28;20212;-76
2021/06/11 04:57:00;;;;;;;7.40;5.47;;;;;;;15.20;75.39;101108.13;5058431;28;20221;-76
2021/06/11 04:59:26;;;;;;;5.63;5.10;;;;;;;15.26;75.64;101103.13;5064280;28;20221;-77
2021/06/11 05:01:52;;;;;;;5.60;5.20;;;;;;;15.32;75.22;101103.66;5064234;28;20226;-77
2021/06/11 05:04:18;;;;;;;6.03;5.30;;;;;;;15.38;75.24;101105.88;5057707;28;20572;-76
2021/06/11 05:06:45;;;;;;;6.60;5.90;;;;;;;15.44;74.99;101103.56;5066742;28;20197;-76
2021/06/11 05:09:12;;;;;;;6.00;5.33;;;;;;;15.51;75.04;101101.28;5064060;28;20221;-76
2021/06/11 05:11:38;;;;;;;6.03;5.47;;;;;;;15.58;75.48;101102.56;5066650;28;20237;-77
2021/06/11 05:14:04;;;;;;;6.53;5.87;;;;;;;15.68;75.62;101097.31;5066189;28;20265;-77
2021/06/11 05:16:31;;;;;;;7.73;6.43;;;;;;;15.77;75.36;101092.06;5065065;28;20225;-76
2021/06/11 05:18:57;;;;;;;6.90;6.20;;;;;;;15.87;75.46;101095.78;5066173;28;20217;-77
2021/06/11 05:21:23;;;;;;;6.80;6.10;;;;;;;15.98;75.60;101097.59;5066783;28;20747;-77
2021/06/11 05:23:51;;;;;;;8.37;7.00;;;;;;;16.06;75.49;101091.63;5071225;28;20224;-77
2021/06/11 05:26:17;;;;;;;7.27;6.50;;;;;;;16.15;75.35;101088.19;5075015;28;20206;-77
2021/06/11 05:28:43;;;;;;;7.10;6.50;;;;;;;16.24;75.34;101088.34;5071977;28;20856;-77
2021/06/11 05:31:09;;;;;;;9.27;7.10;;;;;;;16.37;75.26;101090.91;5064598;28;20676;-77
2021/06/11 05:33:35;;;;;;;7.50;6.80;;;;;;;16.49;74.98;101094.41;5070064;28;20691;-76
2021/06/11 05:36:01;;;;;;;7.57;6.23;;;;;;;16.60;74.80;101087.19;5070787;28;20225;-77
2021/06/11 05:38:27;;;;;;;7.03;6.33;;;;;;;16.76;74.98;101088.66;5072885;28;20635;-77
2021/06/11 05:40:55;;;;;;;7.10;6.07;;;;;;;16.90;74.59;101085.69;5070749;28;20288;-77
2021/06/11 05:43:21;;;;;;;7.73;6.70;;;;;;;17.02;74.33;101081.97;5066922;28;20350;-77
2021/06/11 05:45:47;;;;;;;7.10;6.43;;;;;;;17.17;74.19;101079.84;5067282;28;20648;-77
2021/06/11 05:48:13;;;;;;;7.17;6.47;;;;;;;17.32;73.80;101082.09;5074708;28;20224;-77
2021/06/11 05:50:40;;;;;;;7.80;6.60;;;;;;;17.48;73.59;101078.09;5066876;28;20645;-76
2021/06/11 05:53:06;;;;;;;7.63;6.83;;;;;;;17.63;73.05;101082.16;5070210;28;20207;-77
2021/06/11 05:55:32;;;;;;;7.40;6.70;;;;;;;17.75;72.30;101081.13;5066201;28;20208;-77
2021/06/11 05:57:59;;;;;;;7.13;6.43;;;;;;;17.84;71.69;101080.34;5075049;28;20700;-77
2021/06/11 06:00:25;;;;;;;7.97;6.43;;;;;;;17.98;71.61;101079.13;5068831;28;20229;-77
2021/06/11 06:02:51;;;;;;;7.30;6.47;;;;;;;18.14;71.72;101081.31;5070424;28;20212;-77
2021/06/11 06:05:17;;;;;;;6.57;5.93;;;;;;;18.33;71.79;101074.19;5068891;28;20203;-76
2021/06/11 06:07:44;;;;;;;6.57;5.80;;;;;;;18.54;71.34;101079.50;5062893;28;20303;-77
2021/06/11 06:10:11;;;;;;;7.37;6.63;;;;;;;18.76;71.03;101080.28;5070903;28;20216;-77
2021/06/11 06:12:38;;;;;;;6.40;5.80;;;;;;;18.98;70.38;101080.03;5066258;28;20204;-77
2021/06/11 06:15:07;;;;;;;7.73;6.30;;;;;;;19.17;69.92;101071.94;5071413;28;20205;-77
2021/06/11 06:17:35;;;;;;;6.23;5.63;;;;;;;19.37;69.31;101078.16;5073320;28;20220;-77
2021/06/11 06:20:02;;;;;;;7.67;6.30;;;;;;;19.54;68.63;101077.47;5068664;28;20293;-76
2021/06/11 06:22:28;;;;;;;6.87;6.17;;;;;;;19.68;67.85;101073.50;5071340;28;20207;-76
2021/06/11 06:24:54;;;;;;;7.07;5.83;;;;;;;19.86;68.06;101070.88;5083918;28;20207;-76
2021/06/11 06:27:21;;;;;;;6.87;6.17;;;;;;;20.04;67.82;101069.97;5070383;28;20610;-77
2021/06/11 06:29:46;;;;;;;5.60;5.10;;;;;;;20.24;67.41;101072.59;5065582;28;20681;-77
2021/06/11 06:32:14;;;;;;;6.83;6.23;;;;;;;20.43;67.29;101072.50;5063412;28;20290;-76
2021/06/11 06:34:40;;;;;;;7.50;6.67;;;;;;;20.53;66.35;101070.63;5070200;28;20579;-77
2021/06/11 06:37:10;;;;;;;6.67;5.57;;;;;;;20.66;66.39;101068.41;5065460;28;20576;-76
2021/06/11 06:39:36;;;;;;;6.90;6.20;;;;;;;20.80;65.75;101070.56;5068529;28;20595;-77
2021/06/11 06:42:03;;;;;;;6.73;6.03;;;;;;;20.94;65.34;101065.66;5066336;28;20670;-77
2021/06/11 06:44:29;;;;;;;7.00;6.40;;;;;;;21.05;64.87;101060.00;5067533;28;20201;-77
2021/06/11 06:46:55;;;;;;;7.67;6.97;;;;;;;21.15;64.37;101068.88;5072995;28;20208;-77
2021/06/11 06:49:22;;;;;;;6.97;6.27;;;;;;;21.26;64.00;101066.00;5059779;28;20806;-77
2021/06/11 06:51:48;;;;;;;7.27;6.63;;;;;;;21.32;63.60;101062.63;5067649;28;20208;-77
2021/06/11 06:54:14;;;;;;;6.60;5.60;;;;;;;21.43;63.42;101061.56;5075471;28;20212;-77
2021/06/11 06:56:40;;;;;;;5.53;5.10;;;;;;;21.61;63.16;101065.09;5059063;28;20226;-77
2021/06/11 06:59:06;;;;;;;5.65;4.95;;;;;;;21.76;61.87;101055.34;5072087;28;20228;-77
2021/06/11 07:01:32;;;;;;;5.93;5.23;;;;;;;21.92;61.47;101051.88;5079039;28;20208;-77
2021/06/11 07:04:00;;;;;;;5.60;4.90;;;;;;;22.10;60.61;101057.28;5081000;28;20220;-76
2021/06/11 07:06:28;;;;;;;5.97;5.03;;;;;;;22.29;59.82;101059.75;5073012;28;20677;-77
2021/06/11 07:08:55;;;;;;;6.50;5.32;;;;;;;22.44;58.85;101057.25;5068791;28;20221;-77
2021/06/11 07:11:21;;;;;;;5.60;5.05;;;;;;;22.59;58.36;101055.59;5070993;28;20294;-76
2021/06/11 07:13:48;;;;;;;5.45;4.97;;;;;;;22.78;58.16;101051.78;5071449;28;20203;-77
2021/06/11 07:16:14;;;;;;;8.07;5.35;;;;;;;22.97;57.53;101058.78;5073266;28;20229;-77
2021/06/11 07:18:40;;;;;;;5.30;4.80;;;;;;;23.16;57.21;101056.59;5070871;28;20293;-76
2021/06/11 07:21:07;;;;;;;6.40;4.63;;;;;;;23.38;56.94;101057.78;5071213;28;20207;-76
2021/06/11 07:23:35;;;;;;;5.55;4.40;;;;;;;23.61;56.37;101054.41;5077863;28;20634;-77
2021/06/11 07:26:05;;;;;;;6.07;4.85;;;;;;;23.85;55.76;101054.34;5075156;28;20664;-76
2021/06/11 07:28:31;;;;;;;5.25;4.65;;;;;;;24.02;54.53;101055.16;5066122;28;20300;-78
2021/06/11 07:30:58;;;;;;;5.82;5.03;;;;;;;24.21;54.54;101063.78;5059580;28;20197;-77
2021/06/11 07:33:24;;;;;;;6.05;5.22;;;;;;;24.37;54.26;101065.59;5084626;22;20224;-72
2021/06/11 07:35:50;;;;;;;5.63;5.13;;;;;;;24.54;55.16;101063.69;5079759;28;20549;-74
2021/06/11 07:38:16;;;;;;;5.72;5.15;;;;;;;24.71;54.65;101062.56;5077914;28;20709;-74
2021/06/11 07:40:45;;;;;;;5.85;5.22;;;;;;;24.86;54.14;101063.50;5087421;28;20212;-72
2021/06/11 07:43:11;;;;;;;5.07;4.68;;;;;;;24.97;54.21;101062.25;5076354;28;20214;-74
2021/06/11 07:45:37;;;;;;;6.07;5.00;;;;;;;25.09;54.06;101049.06;5090844;22;20233;-68
2021/06/11 07:48:03;;;;;;;5.70;5.20;;;;;;;25.15;52.81;101051.91;5057064;28;20200;-70
2021/06/11 07:50:30;;;;;;;4.70;4.18;;;;;;;25.24;52.08;101052.72;5058086;28;20204;-70
2021/06/11 07:52:56;;;;;;;4.63;4.22;;;;;;;25.31;51.00;101060.97;5064247;28;20241;-70
2021/06/11 07:55:22;;;;;;;4.43;4.00;;;;;;;25.41;50.39;101051.53;5059884;28;20224;-70
2021/06/11 07:57:49;;;;;;;4.15;3.75;;;;;;;25.46;48.05;101060.00;5050597;28;20659;-70
2021/06/11 08:00:16;;;;;;;4.70;4.05;;;;;;;25.53;46.78;101058.22;5051610;28;20250;-70
2021/06/11 08:02:43;;;;;;;4.38;3.83;;;;;;;25.65;46.45;101066.00;5059649;28;20875;-70
2021/06/11 08:05:09;;;;;;;4.28;3.85;;;;;;;25.78;46.06;101066.22;5057588;28;20201;-70
2021/06/11 08:07:35;;;;;;;4.20;3.80;;;;;;;25.90;45.63;101056.53;5060408;28;20241;-70
2021/06/11 08:10:01;;;;;;;3.63;3.35;;;;;;;26.01;44.88;101061.53;5058778;28;20686;-69
2021/06/11 08:12:29;;;;;;;4.50;3.20;;;;;;;26.06;44.57;101055.50;5055751;28;20502;-70
2021/06/11 08:14:57;;;;;;;4.05;3.40;;;;;;;26.10;44.45;101051.38;5054030;28;20212;-66
2021/06/11 08:17:23;;;;;;;3.97;3.58;;;;;;;26.18;43.83;101052.09;5066738;28;21443;-65
2021/06/11 08:19:49;;;;;;;6.03;3.65;;;;;;;26.27;43.21;101047.41;5061579;28;20229;-66
2021/06/11 08:22:15;;;;;;;4.15;3.75;;;;;;;26.42;43.28;101050.16;5052611;28;20201;-65
2021/06/11 08:24:42;;;;;;;5.50;3.60;;;;;;;26.59;42.27;101051.63;5055461;28;20206;-65
2021/06/11 08:27:08;;;;;;;3.45;3.15;;;;;;;26.77;42.42;101051.19;5060200;28;20221;-67
2021/06/11 08:29:34;;;;;;;4.05;3.60;;;;;;;26.95;42.34;101048.91;5052696;28;20212;-65
2021/06/11 08:32:02;;;;;;;3.50;3.13;;;;;;;27.17;42.06;101052.50;5059642;28;20205;-65
2021/06/11 08:34:29;;;;;;;3.67;3.38;;;;;;;27.37;42.16;101056.28;5052781;28;20578;-66
2021/06/11 08:36:55;;;;;;;3.88;3.58;;;;;;;27.50;41.60;101056.38;5057762;28;20236;-70
2021/06/11 08:39:21;;;;;;;3.55;3.30;;;;;;;27.59;41.37;101059.84;5069675;28;20204;-70
2021/06/11 08:41:47;;;;;;;4.25;3.92;;;;;;;27.64;41.15;101055.47;5062631;28;20692;-70
2021/06/11 08:44:13;;;;;;;4.10;3.78;;;;;;;27.69;41.14;101051.28;5069349;28;20288;-70
2021/06/11 08:46:40;;;;;;;3.95;3.67;;;;;;;27.72;41.10;101056.38;5065376;28;20232;-70
2021/06/11 08:49:08;;;;;;;4.18;3.80;;;;;;;27.82;41.37;101052.22;5064870;28;20204;-70
2021/06/11 08:51:34;;;;;;;7.40;3.80;;;;;;;27.93;40.89;101053.59;5068963;28;20223;-69
2021/06/11 08:54:00;;;;;;;4.15;3.85;;;;;;;28.00;40.80;101044.34;5061624;28;20670;-71
2021/06/11 08:56:26;;;;;;;7.05;4.30;;;;;;;28.08;40.97;101057.03;5069642;28;20243;-71
2021/06/11 08:58:53;;;;;;;4.30;4.00;;;;;;;28.14;40.78;101053.47;5066385;28;20209;-71
2021/06/11 09:01:19;;;;;;;5.00;4.60;;;;;;;28.22;40.55;101045.13;5068410;28;20520;-70
2021/06/11 09:03:46;;;;;;;4.95;4.55;;;;;;;28.30;40.67;101052.34;5068775;28;20201;-71
2021/06/11 09:06:14;;;;;;;4.82;4.43;;;;;;;28.40;40.84;101054.72;5070003;28;20728;-71
2021/06/11 09:08:48;;;;;;;4.85;4.38;;;;;;;28.45;39.67;101060.44;5069550;28;20211;-71
2021/06/11 09:11:16;;;;;;;4.68;4.38;;;;;;;28.45;39.35;101064.00;5069581;28;20203;-71
2021/06/11 09:13:43;;;;;;;4.80;4.40;;;;;;;28.49;39.94;101057.06;5068479;28;20217;-71
2021/06/11 09:16:12;;;;;;;5.75;4.70;;;;;;;28.55;38.71;101066.34;5070030;28;20713;-71
2021/06/11 09:18:44;;;;;;;5.00;4.60;;;;;;;28.60;39.00;101058.38;5069485;28;20211;-71
2021/06/11 09:21:28;;;;;;;4.95;4.53;;;;;;;28.72;38.97;101056.72;5069438;28;20197;-71
2021/06/11 09:24:10;;;;;;;4.82;4.50;;;;;;;28.82;38.07;101049.00;5068860;28;20258;-71
2021/06/11 09:26:36;;;;;;;5.00;4.43;;;;;;;28.82;37.55;101054.47;5068118;28;20286;-71
2021/06/11 09:29:20;;;;;;;3.97;3.67;;;;;;;28.89;36.64;101062.72;5068856;28;20216;-71
2021/06/11 09:31:46;;;;;;;5.20;4.70;;;;;;;28.88;35.62;101064.59;5068541;28;20255;-71
2021/06/11 09:34:23;;;;;;;4.95;4.55;;;;;;;28.90;35.77;101067.97;5069682;28;20201;-71
2021/06/11 09:37:05;;;;;;;4.50;4.10;;;;;;;28.94;35.56;101058.31;5069326;28;20228;-71
2021/06/11 09:39:45;;;;;;;4.90;4.13;;;;;;;29.03;35.70;101070.75;5067823;28;20201;-71
2021/06/11 09:42:13;;;;;;;5.05;4.25;;;;;;;29.07;35.62;101062.97;5064353;28;20197;-70
2021/06/11 09:44:39;;;;;;;4.97;4.55;;;;;;;29.11;35.40;101057.91;5068873;28;20215;-71
2021/06/11 09:47:05;;;;;;;5.18;4.65;;;;;;;29.16;35.54;101066.38;5067809;28;20229;-70
2021/06/11 09:49:42;;;;;;;5.15;4.65;;;;;;;29.18;35.88;101056.88;5069357;28;20204;-70
2021/06/11 09:52:11;;;;;;;5.25;4.15;;;;;;;29.22;36.34;101065.50;5068239;28;20196;-71
2021/06/11 09:54:38;;;;;;;5.10;4.63;;;;;;;29.34;36.59;101069.34;5070755;28;20247;-71
2021/06/11 09:57:21;;;;;;;5.15;4.55;;;;;;;29.43;35.87;101061.75;5071920;28;20689;-71
2021/06/11 09:59:47;;;;;;;5.78;5.18;;;;;;;29.50;34.76;101057.97;5072334;28;20681;-70
2021/06/11 10:02:15;;;;;;;5.07;4.55;;;;;;;29.60;35.67;101060.28;5071696;28;20662;-70
2021/06/11 10:04:42;;;;;;;5.05;4.53;;;;;;;29.70;35.33;101057.97;5073270;28;20204;-71
2021/06/11 10:07:11;;;;;;;5.10;4.70;;;;;;;29.76;35.89;101065.34;5072530;28;20220;-71
2021/06/11 10:09:38;;;;;;;4.30;4.00;;;;;;;29.80;35.81;101063.88;5072680;28;20633;-71
2021/06/11 10:12:05;;;;;;;4.47;4.10;;;;;;;29.86;35.78;101064.91;5071483;28;20207;-71
2021/06/11 10:14:32;;;;;;;4.80;4.30;;;;;;;29.91;35.32;101057.75;5072648;28;20586;-71
2021/06/11 10:16:58;;;;;;;4.68;4.28;;;;;;;29.94;35.50;101054.53;5072671;28;20233;-71
2021/06/11 10:19:25;;;;;;;10.85;4.60;;;;;;;30.04;34.90;101048.66;5071998;28;20208;-71
2021/06/11 10:21:51;;;;;;;4.43;4.03;;;;;;;30.08;34.99;101057.31;5071307;28;20197;-71
2021/06/11 10:24:20;;;;;;;5.00;4.60;;;;;;;30.13;35.46;101052.84;5072891;28;20204;-71
2021/06/11 10:26:47;;;;;;;5.78;4.47;;;;;;;30.11;35.74;101060.44;5071977;28;20602;-71
2021/06/11 10:29:15;;;;;;;5.15;4.65;;;;;;;30.01;35.14;101060.06;5071608;28;20553;-71
2021/06/11 10:31:41;;;;;;;5.68;4.40;;;;;;;29.90;35.80;101063.44;5071527;28;20208;-71
2021/06/11 10:34:07;;;;;;;5.93;5.38;;;;;;;29.80;36.17;101065.75;5072077;28;20583;-70
2021/06/11 10:36:43;;;;;;;6.68;5.10;;;;;;;29.66;36.01;101057.53;5071517;28;20236;-71
2021/06/11 10:39:29;;;;;;;6.32;5.72;;;;;;;29.59;35.67;101055.84;5072304;28;20208;-70
2021/06/11 10:42:08;;;;;;;5.97;5.30;;;;;;;29.54;36.86;101052.91;5070794;28;20694;-71
2021/06/11 10:44:37;;;;;;;6.00;5.50;;;;;;;29.48;36.70;101048.25;5072701;28;20196;-71
2021/06/11 10:47:25;;;;;;;5.30;4.95;;;;;;;29.43;37.12;101043.41;5070037;28;20235;-71
2021/06/11 10:50:05;;;;;;;5.97;5.47;;;;;;;29.37;36.56;101041.50;5070780;28;20250;-69
2021/06/11 10:52:33;;;;;;;5.95;5.38;;;;;;;29.28;37.09;101045.47;5071555;28;20193;-71
2021/06/11 10:55:36;;;;;;;5.38;4.88;;;;;;;29.32;37.20;101049.50;5070733;28;20204;-70
2021/06/11 10:58:26;;;;;;;6.25;5.30;;;;;;;29.38;37.55;101048.63;5071897;28;20288;-71
2021/06/11 11:00:52;;;;;;;6.97;6.38;;;;;;;29.35;37.09;101047.19;5062807;28;20196;-71
2021/06/11 11:03:30;;;;;;;6.35;5.78;;;;;;;29.28;36.92;101048.22;5071334;28;20201;-71
2021/06/11 11:05:57;;;;;;;6.60;6.00;;;;;;;29.27;37.40;101041.03;5066464;28;20228;-71
2021/06/11 11:08:51;;;;;;;7.50;6.75;;;;;;;29.22;37.21;101046.31;5071533;28;20201;-70
2021/06/11 11:11:30;;;;;;;7.60;5.40;;;;;;;29.16;37.66;101041.69;5071265;28;20204;-71
2021/06/11 11:13:57;;;;;;;7.70;6.88;;;;;;;29.16;38.31;101039.78;5070413;28;20200;-71
2021/06/11 11:16:25;;;;;;;7.75;7.07;;;;;;;29.18;38.47;101043.16;5070644;28;20221;-71
2021/06/11 11:18:51;;;;;;;6.70;6.10;;;;;;;29.14;38.53;101049.28;5070981;28;20200;-71
2021/06/11 11:21:23;;;;;;;6.78;6.25;;;;;;;29.08;38.29;101039.97;5071089;28;20197;-71
2021/06/11 11:23:51;;;;;;;6.75;6.07;;;;;;;29.06;38.39;101035.75;5070052;28;20207;-71
2021/06/11 11:26:17;;;;;;;6.65;6.03;;;;;;;29.12;38.42;101026.69;5071343;28;20232;-71
2021/06/11 11:28:46;;;;;;;6.53;5.93;;;;;;;29.16;38.81;101017.84;5057917;28;20212;-64